Time;durP1;ratioP1;P1;durP2;ratioP2;P2;SDS_P1;SDS_P2;PMS_P1;PMS_P2;Temp;Humidity;BMP_temperature;BMP_pressure;BME280_temperature;BME280_humidity;BME280_pressure;Samples;Min_cycle;Max_cycle;Signal;HPM_P1;HPM_P2
2021/05/21 00:01:52;;;;;;;3.23;1.10;;;;;;;;;;4954321;29;20450;-83
2021/05/21 00:04:19;;;;;;;1.20;1.10;;;;;;;;;;4954156;29;20474;-84
2021/05/21 00:06:45;;;;;;;1.33;1.23;;;;;;;;;;4954599;29;20779;-80
2021/05/21 00:09:11;;;;;;;1.53;1.43;;;;;;;;;;4953910;29;20503;-84
2021/05/21 00:11:39;;;;;;;1.20;1.10;;;;;;;;;;4954435;29;20483;-83
2021/05/21 00:14:05;;;;;;;1.57;1.27;;;;;;;;;;4954198;29;20490;-82
2021/05/21 00:16:31;;;;;;;1.50;1.40;;;;;;;;;;4936729;29;20485;-79
2021/05/21 00:18:57;;;;;;;1.60;1.50;;;;;;;;;;4954080;29;20523;-82
2021/05/21 00:21:23;;;;;;;2.10;1.30;;;;;;;;;;4954305;29;20412;-77
2021/05/21 00:23:49;;;;;;;1.63;1.20;;;;;;;;;;4953716;29;20415;-80
2021/05/21 00:29:19;;;;;;;2.00;1.37;;;;;;;;;;4957599;29;20421;-83
2021/05/21 00:31:45;;;;;;;1.70;1.20;;;;;;;;;;4957598;29;20422;-83
2021/05/21 00:34:11;;;;;;;1.30;1.20;;;;;;;;;;4940263;29;20415;-82
2021/05/21 00:36:40;;;;;;;1.63;1.00;;;;;;;;;;4940396;29;20427;-82
2021/05/21 00:39:06;;;;;;;1.27;1.20;;;;;;;;;;4956913;29;20481;-80
2021/05/21 00:44:35;;;;;;;3.00;2.80;;;;;;;;;;4957417;29;20474;-82
2021/05/21 00:47:01;;;;;;;0.70;0.70;;;;;;;;;;4957265;29;20430;-79
2021/05/21 00:49:27;;;;;;;2.27;1.80;;;;;;;;;;4957226;29;20935;-82
2021/05/21 00:51:53;;;;;;;2.57;1.43;;;;;;;;;;4957283;29;20775;-80
2021/05/21 00:54:20;;;;;;;1.50;1.40;;;;;;;;;;4957404;29;20422;-80
2021/05/21 00:56:47;;;;;;;3.60;1.20;;;;;;;;;;4957188;29;20414;-82
2021/05/21 00:59:13;;;;;;;1.47;1.37;;;;;;;;;;4940430;29;20529;-85
2021/05/21 01:01:40;;;;;;;1.40;1.30;;;;;;;;;;4957368;29;20442;-82
2021/05/21 01:04:06;;;;;;;1.70;1.53;;;;;;;;;;4957182;29;20855;-83
2021/05/21 01:06:32;;;;;;;1.70;1.60;;;;;;;;;;4939688;29;20427;-83
2021/05/21 01:08:58;;;;;;;1.90;1.53;;;;;;;;;;4956979;29;20767;-81
2021/05/21 01:11:25;;;;;;;4.40;1.97;;;;;;;;;;4956757;29;20427;-81
2021/05/21 01:13:51;;;;;;;1.60;1.23;;;;;;;;;;4956967;29;20423;-83
2021/05/21 01:16:17;;;;;;;1.47;1.37;;;;;;;;;;4956723;29;20755;-81
2021/05/21 01:18:43;;;;;;;1.13;1.03;;;;;;;;;;4956784;29;20478;-81
2021/05/21 01:21:09;;;;;;;1.10;1.10;;;;;;;;;;4956551;29;20415;-80
2021/05/21 01:23:35;;;;;;;1.80;1.30;;;;;;;;;;4956778;29;20429;-82
2021/05/21 01:26:01;;;;;;;2.80;1.30;;;;;;;;;;4956343;29;20414;-83
2021/05/21 01:28:27;;;;;;;1.60;1.23;;;;;;;;;;4956470;29;20898;-82
2021/05/21 01:30:54;;;;;;;1.37;1.27;;;;;;;;;;4957244;29;20414;-84
2021/05/21 01:33:20;;;;;;;3.80;1.40;;;;;;;;;;4956382;29;20545;-82
2021/05/21 01:35:46;;;;;;;1.67;1.57;;;;;;;;;;4956454;29;20445;-82
2021/05/21 01:38:13;;;;;;;1.70;1.60;;;;;;;;;;4955640;28;20889;-82
2021/05/21 01:40:39;;;;;;;1.07;1.07;;;;;;;;;;4956755;29;20474;-83
2021/05/21 01:43:05;;;;;;;1.77;1.67;;;;;;;;;;4956181;29;20803;-83
2021/05/21 01:45:31;;;;;;;1.17;1.07;;;;;;;;;;4956031;29;20409;-82
2021/05/21 01:47:57;;;;;;;1.47;1.37;;;;;;;;;;4956387;29;20423;-84
2021/05/21 01:50:23;;;;;;;1.60;1.50;;;;;;;;;;4956042;29;20419;-81
2021/05/21 01:52:49;;;;;;;2.47;1.67;;;;;;;;;;4956304;29;20437;-82
2021/05/21 01:55:15;;;;;;;3.00;1.27;;;;;;;;;;4956171;29;20420;-83
2021/05/21 01:57:42;;;;;;;4.57;1.30;;;;;;;;;;4955695;29;20488;-81
2021/05/21 02:00:10;;;;;;;1.40;1.30;;;;;;;;;;4955837;29;20428;-82
2021/05/21 02:02:36;;;;;;;1.70;1.60;;;;;;;;;;4955850;29;20417;-83
2021/05/21 02:05:03;;;;;;;1.07;0.97;;;;;;;;;;4938457;29;20843;-83
2021/05/21 02:07:29;;;;;;;2.90;1.10;;;;;;;;;;4956188;29;20422;-82
2021/05/21 02:10:02;;;;;;;0.90;0.90;;;;;;;;;;4955106;29;20412;-83
2021/05/21 02:15:32;;;;;;;1.40;1.30;;;;;;;;;;4955664;29;20433;-81
2021/05/21 02:17:59;;;;;;;1.10;1.10;;;;;;;;;;4955415;29;20478;-80
2021/05/21 02:20:25;;;;;;;3.03;1.60;;;;;;;;;;4955615;29;20517;-83
2021/05/21 02:22:51;;;;;;;1.77;1.10;;;;;;;;;;4955821;29;20431;-81
2021/05/21 02:25:17;;;;;;;1.43;1.20;;;;;;;;;;4955422;29;20773;-82
2021/05/21 02:30:46;;;;;;;1.40;1.30;;;;;;;;;;4954871;29;20473;-81
2021/05/21 02:33:12;;;;;;;1.83;1.23;;;;;;;;;;4955508;29;20969;-83
2021/05/21 02:35:38;;;;;;;2.00;1.27;;;;;;;;;;4955433;29;20446;-82
2021/05/21 02:38:04;;;;;;;1.23;1.13;;;;;;;;;;4955717;29;20474;-81
2021/05/21 02:40:30;;;;;;;1.80;1.00;;;;;;;;;;4955276;29;20433;-82
2021/05/21 02:46:00;;;;;;;1.80;1.10;;;;;;;;;;4954919;29;20522;-83
2021/05/21 02:48:26;;;;;;;2.30;1.50;;;;;;;;;;4955558;29;20498;-83
2021/05/21 02:50:52;;;;;;;1.00;1.00;;;;;;;;;;4954943;28;20414;-81
2021/05/21 02:53:18;;;;;;;1.10;1.00;;;;;;;;;;4955454;29;20426;-81
2021/05/21 03:01:32;;;;;;;1.60;1.30;;;;;;;;;;4955222;29;20477;-81
2021/05/21 03:03:58;;;;;;;2.20;1.20;;;;;;;;;;4938120;28;20434;-81
2021/05/21 03:06:24;;;;;;;1.77;1.17;;;;;;;;;;4955364;29;20438;-82
2021/05/21 03:08:51;;;;;;;1.43;0.90;;;;;;;;;;4957114;29;20497;-83
2021/05/21 03:11:17;;;;;;;6.87;1.50;;;;;;;;;;4958750;29;20783;-82
2021/05/21 03:13:43;;;;;;;2.00;1.10;;;;;;;;;;4958725;29;20407;-80
2021/05/21 03:16:09;;;;;;;1.17;1.07;;;;;;;;;;4958190;29;20429;-82
2021/05/21 03:18:35;;;;;;;1.63;1.13;;;;;;;;;;4958162;29;20557;-82
2021/05/21 03:21:01;;;;;;;1.20;1.10;;;;;;;;;;4958668;29;20427;-85
2021/05/21 03:23:27;;;;;;;1.33;1.00;;;;;;;;;;4958812;29;20506;-80
2021/05/21 03:25:53;;;;;;;2.60;1.10;;;;;;;;;;4958802;29;20498;-83
2021/05/21 03:31:23;;;;;;;1.83;1.03;;;;;;;;;;4957663;29;20449;-83
2021/05/21 03:33:49;;;;;;;1.83;0.90;;;;;;;;;;4958296;29;20410;-81
2021/05/21 03:36:15;;;;;;;0.87;0.87;;;;;;;;;;4957611;29;20501;-83
2021/05/21 03:38:41;;;;;;;1.23;1.10;;;;;;;;;;4955862;29;20541;-82
2021/05/21 03:41:08;;;;;;;2.30;1.47;;;;;;;;;;4955430;29;20418;-83
2021/05/21 03:43:34;;;;;;;1.63;1.13;;;;;;;;;;4955096;29;20430;-83
2021/05/21 03:46:00;;;;;;;2.00;1.20;;;;;;;;;;4956519;29;20492;-83
2021/05/21 03:48:26;;;;;;;2.07;1.30;;;;;;;;;;4955463;29;20416;-83
2021/05/21 03:50:52;;;;;;;1.03;0.97;;;;;;;;;;4955244;29;20410;-80
2021/05/21 03:53:18;;;;;;;1.20;1.10;;;;;;;;;;4957484;29;20427;-83
2021/05/21 03:55:44;;;;;;;1.20;1.10;;;;;;;;;;4957910;29;20480;-84
2021/05/21 04:01:14;;;;;;;2.47;0.97;;;;;;;;;;4957407;28;20580;-82
2021/05/21 04:03:40;;;;;;;1.00;0.90;;;;;;;;;;4960308;29;20528;-82
2021/05/21 04:06:06;;;;;;;1.00;0.90;;;;;;;;;;4959869;29;20473;-83
2021/05/21 04:08:32;;;;;;;1.23;1.10;;;;;;;;;;4960901;29;20450;-81
2021/05/21 04:10:58;;;;;;;0.97;0.90;;;;;;;;;;4943469;29;20909;-78
2021/05/21 04:16:28;;;;;;;1.37;0.90;;;;;;;;;;4959205;29;20471;-83
2021/05/21 04:18:54;;;;;;;2.93;1.27;;;;;;;;;;4958241;29;20466;-83
2021/05/21 04:21:20;;;;;;;1.13;1.03;;;;;;;;;;4958302;29;20417;-85
2021/05/21 04:23:47;;;;;;;1.90;1.30;;;;;;;;;;4958699;29;20766;-83
2021/05/21 04:26:13;;;;;;;3.00;1.27;;;;;;;;;;4958172;29;20415;-84
2021/05/21 04:31:42;;;;;;;3.50;1.20;;;;;;;;;;4958160;29;20872;-81
2021/05/21 04:34:08;;;;;;;3.00;1.10;;;;;;;;;;4957980;29;20422;-83
2021/05/21 04:36:34;;;;;;;1.20;0.97;;;;;;;;;;4957658;29;20474;-81
2021/05/21 04:39:02;;;;;;;0.93;0.90;;;;;;;;;;4957867;29;20878;-84
2021/05/21 04:41:28;;;;;;;0.80;0.80;;;;;;;;;;4957674;29;20984;-81
2021/05/21 04:46:58;;;;;;;1.37;1.27;;;;;;;;;;4957802;29;20445;-82
2021/05/21 04:49:33;;;;;;;1.53;1.10;;;;;;;;;;4957755;29;20429;-81
2021/05/21 04:52:00;;;;;;;4.73;3.00;;;;;;;;;;4956892;29;20430;-82
2021/05/21 04:54:26;;;;;;;0.97;0.60;;;;;;;;;;4956991;29;20418;-72
2021/05/21 04:56:52;;;;;;;1.30;0.80;;;;;;;;;;4957901;29;20494;-71
2021/05/21 04:59:19;;;;;;;0.90;0.90;;;;;;;;;;4956637;29;20497;-72
2021/05/21 05:01:45;;;;;;;2.60;0.80;;;;;;;;;;4956185;29;20414;-71
2021/05/21 05:04:11;;;;;;;1.20;1.10;;;;;;;;;;4955527;29;20442;-71
2021/05/21 05:06:37;;;;;;;1.07;0.97;;;;;;;;;;4956145;29;20427;-70
2021/05/21 05:09:03;;;;;;;1.40;1.07;;;;;;;;;;4955792;29;20430;-72
2021/05/21 05:11:29;;;;;;;1.20;1.10;;;;;;;;;;4955835;29;20858;-71
2021/05/21 05:16:59;;;;;;;1.03;0.97;;;;;;;;;;4955768;29;20469;-71
2021/05/21 05:19:25;;;;;;;1.57;0.80;;;;;;;;;;4955347;29;20470;-70
2021/05/21 05:21:51;;;;;;;1.63;1.17;;;;;;;;;;4956013;29;20759;-71
2021/05/21 05:24:18;;;;;;;1.90;0.80;;;;;;;;;;4956044;29;20426;-72
2021/05/21 05:26:45;;;;;;;1.23;1.00;;;;;;;;;;4955850;29;20466;-71
2021/05/21 05:32:15;;;;;;;2.10;0.90;;;;;;;;;;4955546;29;20402;-72
2021/05/21 05:34:41;;;;;;;0.90;0.80;;;;;;;;;;4955653;29;20717;-70
2021/05/21 05:37:07;;;;;;;10.37;1.20;;;;;;;;;;4955987;29;20430;-72
2021/05/21 05:39:33;;;;;;;1.10;1.00;;;;;;;;;;4955954;29;20982;-71
2021/05/21 05:41:59;;;;;;;1.07;0.67;;;;;;;;;;4955954;29;20437;-72
2021/05/21 05:47:28;;;;;;;1.03;0.80;;;;;;;;;;4955811;29;20414;-72
2021/05/21 05:49:54;;;;;;;0.70;0.70;;;;;;;;;;4955672;29;20412;-71
2021/05/21 05:52:20;;;;;;;1.57;1.03;;;;;;;;;;4955727;29;20498;-72
2021/05/21 05:54:46;;;;;;;1.63;1.03;;;;;;;;;;4955585;29;20419;-72
2021/05/21 05:57:12;;;;;;;1.50;1.17;;;;;;;;;;4955683;29;20415;-73
2021/05/21 06:02:42;;;;;;;0.80;0.77;;;;;;;;;;4955333;29;20562;-72
2021/05/21 06:05:08;;;;;;;1.23;0.83;;;;;;;;;;4954782;28;20463;-73
2021/05/21 06:07:34;;;;;;;4.63;1.07;;;;;;;;;;4955396;29;20459;-70
2021/05/21 06:10:00;;;;;;;1.17;1.07;;;;;;;;;;4954787;29;20462;-70
2021/05/21 06:12:26;;;;;;;1.80;0.90;;;;;;;;;;4954797;29;20428;-71
2021/05/21 06:17:56;;;;;;;1.00;0.80;;;;;;;;;;4954565;29;21017;-72
2021/05/21 06:20:23;;;;;;;1.80;0.83;;;;;;;;;;4954524;29;20921;-71
2021/05/21 06:22:49;;;;;;;1.93;0.97;;;;;;;;;;4954697;29;20426;-69
2021/05/21 06:25:18;;;;;;;2.07;1.00;;;;;;;;;;4954114;28;20431;-72
2021/05/21 06:27:44;;;;;;;3.23;1.13;;;;;;;;;;4954850;29;20791;-71
2021/05/21 06:30:11;;;;;;;0.90;0.90;;;;;;;;;;4954550;29;20455;-72
2021/05/21 06:32:37;;;;;;;1.20;1.00;;;;;;;;;;4954548;29;20430;-70
2021/05/21 06:35:04;;;;;;;1.73;0.80;;;;;;;;;;4954550;29;20416;-72
2021/05/21 06:37:30;;;;;;;2.00;1.00;;;;;;;;;;4954456;29;20501;-73
2021/05/21 06:39:56;;;;;;;1.70;0.87;;;;;;;;;;4954247;29;20427;-72
2021/05/21 06:42:22;;;;;;;2.47;1.10;;;;;;;;;;4954099;29;20423;-71
2021/05/21 06:47:51;;;;;;;1.20;1.10;;;;;;;;;;4953913;29;20514;-75
2021/05/21 06:50:17;;;;;;;1.17;0.90;;;;;;;;;;4954079;29;20459;-71
2021/05/21 06:52:43;;;;;;;0.57;0.57;;;;;;;;;;4954050;29;20430;-70
2021/05/21 06:55:10;;;;;;;0.70;0.70;;;;;;;;;;4953973;29;20914;-71
2021/05/21 06:57:36;;;;;;;1.50;0.80;;;;;;;;;;4954555;29;20424;-72
2021/05/21 07:03:05;;;;;;;2.20;0.77;;;;;;;;;;4953827;29;20455;-71
2021/05/21 07:05:31;;;;;;;1.37;0.80;;;;;;;;;;4953630;28;20479;-70
2021/05/21 07:07:57;;;;;;;5.20;1.30;;;;;;;;;;4953818;29;20423;-74
2021/05/21 07:10:23;;;;;;;0.90;0.80;;;;;;;;;;4953699;29;20430;-71
2021/05/21 07:12:49;;;;;;;1.00;0.70;;;;;;;;;;4953896;29;20431;-70
2021/05/21 07:18:18;;;;;;;1.20;1.10;;;;;;;;;;4953664;29;20969;-70
2021/05/21 07:20:46;;;;;;;0.97;0.87;;;;;;;;;;4936432;29;20447;-71
2021/05/21 07:23:12;;;;;;;2.53;0.77;;;;;;;;;;4953729;29;20879;-71
2021/05/21 07:25:39;;;;;;;1.10;1.10;;;;;;;;;;4953616;29;20494;-72
2021/05/21 07:28:05;;;;;;;0.80;0.80;;;;;;;;;;4953828;29;20459;-71
2021/05/21 07:33:36;;;;;;;1.60;0.63;;;;;;;;;;4953690;29;20422;-72
2021/05/21 07:36:02;;;;;;;1.20;0.80;;;;;;;;;;4953756;28;20424;-73
2021/05/21 07:38:30;;;;;;;4.63;0.80;;;;;;;;;;4957358;29;20467;-72
2021/05/21 07:40:56;;;;;;;2.43;0.80;;;;;;;;;;4957764;29;20420;-72
2021/05/21 07:49:11;;;;;;;0.77;0.77;;;;;;;;;;4957618;29;20403;-71
2021/05/21 07:51:37;;;;;;;1.43;0.70;;;;;;;;;;4957510;29;20411;-71
2021/05/21 07:54:03;;;;;;;2.00;0.93;;;;;;;;;;4958050;29;20418;-72
2021/05/21 07:56:29;;;;;;;1.37;0.80;;;;;;;;;;4957652;29;20427;-71
2021/05/21 07:58:55;;;;;;;3.80;0.60;;;;;;;;;;4957266;29;20968;-70
2021/05/21 08:01:21;;;;;;;0.90;0.70;;;;;;;;;;4957276;29;20885;-82
2021/05/21 08:03:48;;;;;;;1.00;0.63;;;;;;;;;;4957382;29;20418;-80
2021/05/21 08:06:18;;;;;;;2.07;1.03;;;;;;;;;;4957017;28;20537;-80
2021/05/21 08:08:44;;;;;;;1.30;0.73;;;;;;;;;;4957491;29;20990;-81
2021/05/21 08:11:10;;;;;;;1.90;1.00;;;;;;;;;;4957061;29;20407;-80
2021/05/21 08:13:39;;;;;;;1.27;0.80;;;;;;;;;;4957397;29;20506;-83
2021/05/21 08:19:09;;;;;;;1.20;1.03;;;;;;;;;;4956989;29;20481;-80
2021/05/21 08:21:36;;;;;;;0.83;0.80;;;;;;;;;;4957043;29;20470;-80
2021/05/21 08:24:05;;;;;;;2.33;0.90;;;;;;;;;;4956932;29;20423;-79
2021/05/21 08:26:31;;;;;;;1.00;0.80;;;;;;;;;;4956998;29;20430;-80
2021/05/21 08:28:57;;;;;;;2.30;0.90;;;;;;;;;;4956754;29;20423;-78
2021/05/21 08:31:24;;;;;;;1.13;1.03;;;;;;;;;;4956958;29;20419;-80
2021/05/21 08:33:50;;;;;;;1.60;0.73;;;;;;;;;;4956812;29;20523;-81
2021/05/21 08:36:16;;;;;;;0.73;0.73;;;;;;;;;;4956566;29;20466;-80
2021/05/21 08:38:46;;;;;;;0.97;0.80;;;;;;;;;;4956764;29;20864;-81
2021/05/21 08:41:16;;;;;;;0.90;0.80;;;;;;;;;;4956326;29;20454;-80
2021/05/21 08:43:45;;;;;;;1.33;0.90;;;;;;;;;;4956262;29;20837;-84
2021/05/21 08:49:16;;;;;;;1.57;0.83;;;;;;;;;;4956196;29;20403;-81
2021/05/21 08:51:42;;;;;;;2.37;0.60;;;;;;;;;;4956999;29;20466;-78
2021/05/21 08:54:11;;;;;;;1.63;1.20;;;;;;;;;;4954697;29;20411;-80
2021/05/21 08:56:37;;;;;;;3.07;0.97;;;;;;;;;;4954913;29;20463;-80
2021/05/21 08:59:03;;;;;;;1.07;0.73;;;;;;;;;;4954491;29;20472;-80
2021/05/21 09:04:46;;;;;;;1.40;0.53;;;;;;;;;;4955107;28;20919;-78
2021/05/21 09:07:32;;;;;;;1.73;0.60;;;;;;;;;;4938440;29;20438;-79
2021/05/21 09:10:05;;;;;;;3.60;0.80;;;;;;;;;;4954598;29;20431;-79
2021/05/21 09:12:41;;;;;;;1.20;0.80;;;;;;;;;;4954848;29;20415;-80
2021/05/21 09:15:13;;;;;;;0.73;0.60;;;;;;;;;;4955446;29;20408;-81
2021/05/21 09:17:56;;;;;;;5.53;0.87;;;;;;;;;;4955353;29;20435;-81
2021/05/21 09:20:23;;;;;;;3.60;0.80;;;;;;;;;;4955025;29;20424;-84
2021/05/21 09:23:22;;;;;;;7.33;1.10;;;;;;;;;;4955613;29;20486;-87
2021/05/21 09:25:49;;;;;;;1.17;0.73;;;;;;;;;;4934206;29;20502;-85
2021/05/21 09:28:36;;;;;;;1.50;0.70;;;;;;;;;;4955705;29;20423;-80
2021/05/21 09:31:21;;;;;;;6.27;1.00;;;;;;;;;;4956297;29;20446;-86
2021/05/21 09:33:52;;;;;;;1.83;0.70;;;;;;;;;;4955698;29;20416;-83
2021/05/21 09:36:32;;;;;;;1.00;0.73;;;;;;;;;;4955719;29;20443;-79
2021/05/21 09:38:58;;;;;;;1.30;0.63;;;;;;;;;;4955592;29;20471;-84
2021/05/21 09:41:26;;;;;;;0.70;0.70;;;;;;;;;;4955263;29;20423;-83
2021/05/21 09:43:53;;;;;;;1.90;0.70;;;;;;;;;;4955586;29;20474;-82
2021/05/21 09:46:19;;;;;;;2.73;0.93;;;;;;;;;;4955122;29;20872;-83
2021/05/21 09:48:45;;;;;;;0.90;0.60;;;;;;;;;;4955280;29;20423;-82
2021/05/21 09:51:21;;;;;;;1.87;0.70;;;;;;;;;;4955051;29;20442;-79
2021/05/21 09:53:47;;;;;;;0.90;0.77;;;;;;;;;;4954977;29;20491;-80
2021/05/21 09:56:19;;;;;;;0.90;0.70;;;;;;;;;;4955402;29;20508;-83
2021/05/21 09:58:45;;;;;;;0.80;0.50;;;;;;;;;;4953679;28;20478;-83
2021/05/21 10:01:11;;;;;;;1.17;0.93;;;;;;;;;;4955316;29;20890;-83
2021/05/21 10:03:38;;;;;;;1.37;0.70;;;;;;;;;;4937263;29;20440;-85
2021/05/21 10:06:04;;;;;;;2.70;0.70;;;;;;;;;;4954191;29;20467;-81
2021/05/21 10:08:33;;;;;;;0.70;0.70;;;;;;;;;;4953312;29;20488;-81
2021/05/21 10:11:00;;;;;;;0.83;0.50;;;;;;;;;;4953736;29;20416;-85
2021/05/21 10:13:26;;;;;;;1.00;0.33;;;;;;;;;;4954133;29;20424;-79
2021/05/21 10:15:52;;;;;;;0.60;0.60;;;;;;;;;;4953870;29;20412;-81
2021/05/21 10:18:18;;;;;;;1.60;0.80;;;;;;;;;;4953868;29;20555;-83
2021/05/21 10:20:45;;;;;;;4.20;0.70;;;;;;;;;;4953631;29;20504;-82
2021/05/21 10:23:17;;;;;;;1.03;0.70;;;;;;;;;;4953470;29;20400;-81
2021/05/21 10:25:44;;;;;;;0.80;0.80;;;;;;;;;;4953412;29;20540;-81
2021/05/21 10:28:11;;;;;;;0.70;0.67;;;;;;;;;;4953362;29;20915;-79
2021/05/21 10:30:37;;;;;;;5.33;0.90;;;;;;;;;;4953670;29;20495;-79
2021/05/21 10:33:13;;;;;;;1.33;0.77;;;;;;;;;;4936069;29;20431;-79
2021/05/21 10:35:40;;;;;;;1.43;0.97;;;;;;;;;;4953522;29;20503;-81
2021/05/21 10:38:24;;;;;;;0.83;0.70;;;;;;;;;;4952721;29;20499;-81
2021/05/21 10:41:09;;;;;;;0.70;0.63;;;;;;;;;;4952989;29;20491;-81
2021/05/21 10:43:46;;;;;;;1.53;0.90;;;;;;;;;;4953790;29;20510;-82
2021/05/21 10:46:16;;;;;;;0.70;0.63;;;;;;;;;;4954291;29;20472;-82
2021/05/21 10:48:56;;;;;;;1.00;0.60;;;;;;;;;;4954041;29;20415;-83
2021/05/21 10:51:23;;;;;;;0.93;0.70;;;;;;;;;;4936595;29;20446;-79
2021/05/21 10:54:09;;;;;;;0.70;0.63;;;;;;;;;;4953233;29;20938;-82
2021/05/21 10:56:44;;;;;;;1.10;0.87;;;;;;;;;;4953366;29;20419;-79
2021/05/21 10:59:10;;;;;;;4.67;1.80;;;;;;;;;;4953330;29;20525;-80
2021/05/21 11:01:46;;;;;;;0.73;0.60;;;;;;;;;;4951142;29;21078;-80
2021/05/21 11:04:13;;;;;;;0.40;0.30;;;;;;;;;;4951560;29;20469;-71
2021/05/21 11:06:45;;;;;;;0.83;0.53;;;;;;;;;;4951525;29;20427;-70
2021/05/21 11:09:12;;;;;;;1.20;0.87;;;;;;;;;;4951625;29;20504;-70
2021/05/21 11:11:42;;;;;;;0.70;0.70;;;;;;;;;;4951700;29;20879;-70
2021/05/21 11:14:19;;;;;;;2.70;0.80;;;;;;;;;;4951794;29;20424;-71
2021/05/21 11:16:54;;;;;;;0.87;0.83;;;;;;;;;;4951522;29;20486;-69
2021/05/21 11:19:25;;;;;;;0.77;0.77;;;;;;;;;;4951519;29;20529;-71
2021/05/21 11:22:11;;;;;;;1.67;1.57;;;;;;;;;;4951595;29;20426;-75
2021/05/21 11:24:38;;;;;;;1.83;0.70;;;;;;;;;;4927596;29;20522;-71
2021/05/21 11:27:06;;;;;;;0.80;0.70;;;;;;;;;;4934289;29;20462;-73
2021/05/21 11:29:33;;;;;;;1.20;0.80;;;;;;;;;;4952122;29;20441;-71
2021/05/21 11:31:59;;;;;;;1.77;0.90;;;;;;;;;;4951959;29;20494;-72
2021/05/21 11:34:25;;;;;;;1.60;0.90;;;;;;;;;;4952464;29;20879;-71
2021/05/21 11:36:54;;;;;;;1.90;0.53;;;;;;;;;;4952458;29;20424;-71
2021/05/21 11:39:20;;;;;;;1.27;0.60;;;;;;;;;;4952702;29;20802;-70
2021/05/21 11:41:47;;;;;;;1.43;1.33;;;;;;;;;;4952386;29;20422;-69
2021/05/21 11:44:13;;;;;;;1.57;0.63;;;;;;;;;;4935367;29;20943;-71
2021/05/21 11:46:40;;;;;;;0.80;0.70;;;;;;;;;;4952268;29;20814;-70
2021/05/21 11:49:09;;;;;;;0.80;0.63;;;;;;;;;;4952314;29;20427;-68
2021/05/21 11:51:35;;;;;;;1.17;0.80;;;;;;;;;;4952386;29;20443;-72
2021/05/21 11:54:05;;;;;;;0.70;0.60;;;;;;;;;;4952530;29;20941;-70
2021/05/21 11:56:35;;;;;;;0.70;0.60;;;;;;;;;;4952286;29;20415;-70
2021/05/21 11:59:03;;;;;;;0.50;0.40;;;;;;;;;;4952023;29;20471;-69
2021/05/21 12:01:30;;;;;;;1.33;0.50;;;;;;;;;;4951119;29;20423;-77
2021/05/21 12:03:57;;;;;;;0.97;0.50;;;;;;;;;;4952093;28;20419;-77
2021/05/21 12:06:23;;;;;;;1.07;0.60;;;;;;;;;;4952008;29;20423;-76
2021/05/21 12:08:51;;;;;;;0.77;0.50;;;;;;;;;;4952160;29;20989;-76
2021/05/21 12:11:17;;;;;;;0.80;0.50;;;;;;;;;;4951865;29;20419;-77
2021/05/21 12:13:43;;;;;;;1.50;1.10;;;;;;;;;;4952332;29;20423;-77
2021/05/21 12:16:19;;;;;;;1.23;0.70;;;;;;;;;;4952392;29;20438;-75
2021/05/21 12:18:48;;;;;;;1.80;0.60;;;;;;;;;;4952634;29;20482;-78
2021/05/21 12:21:20;;;;;;;1.13;0.50;;;;;;;;;;4952884;29;20845;-77
2021/05/21 12:23:50;;;;;;;0.83;0.60;;;;;;;;;;4955424;28;20431;-77
2021/05/21 12:26:17;;;;;;;0.60;0.50;;;;;;;;;;4956120;29;20576;-77
2021/05/21 12:28:43;;;;;;;2.23;0.67;;;;;;;;;;4955902;29;20518;-79
2021/05/21 12:31:11;;;;;;;1.03;0.77;;;;;;;;;;4955358;29;20489;-78
2021/05/21 12:36:40;;;;;;;1.00;0.60;;;;;;;;;;4955435;29;20429;-78
2021/05/21 12:39:10;;;;;;;1.13;0.60;;;;;;;;;;4955570;29;20569;-78
2021/05/21 12:41:40;;;;;;;1.00;0.70;;;;;;;;;;4955765;29;20434;-76
2021/05/21 12:44:16;;;;;;;1.37;0.60;;;;;;;;;;4955425;29;20868;-77
2021/05/21 12:46:53;;;;;;;2.30;0.70;;;;;;;;;;4955507;29;20428;-78
2021/05/21 12:49:34;;;;;;;0.50;0.33;;;;;;;;;;4954755;29;20459;-79
2021/05/21 12:52:02;;;;;;;4.00;0.70;;;;;;;;;;4955711;29;20415;-78
2021/05/21 12:54:31;;;;;;;0.67;0.67;;;;;;;;;;4955394;29;20428;-78
2021/05/21 12:56:58;;;;;;;1.67;0.70;;;;;;;;;;4955369;29;20435;-78
2021/05/21 12:59:33;;;;;;;2.30;0.70;;;;;;;;;;4955153;29;20562;-77
2021/05/21 13:01:59;;;;;;;0.70;0.70;;;;;;;;;;4954826;29;20423;-78
2021/05/21 13:04:25;;;;;;;0.50;0.50;;;;;;;;;;4954447;29;20478;-78
2021/05/21 13:06:55;;;;;;;1.13;0.60;;;;;;;;;;4955156;29;20450;-78
2021/05/21 13:09:21;;;;;;;1.00;0.80;;;;;;;;;;4954914;29;20427;-76
2021/05/21 13:11:48;;;;;;;3.50;0.70;;;;;;;;;;4955179;29;20413;-77
2021/05/21 13:14:15;;;;;;;1.27;0.50;;;;;;;;;;4954941;29;20498;-75
2021/05/21 13:16:46;;;;;;;0.90;0.77;;;;;;;;;;4954827;29;20412;-77
2021/05/21 13:19:20;;;;;;;0.97;0.53;;;;;;;;;;4954848;29;20478;-77
2021/05/21 13:21:46;;;;;;;0.70;0.40;;;;;;;;;;4954365;29;20419;-79
2021/05/21 13:24:12;;;;;;;0.90;0.50;;;;;;;;;;4954287;29;20766;-78
2021/05/21 13:26:47;;;;;;;1.27;0.70;;;;;;;;;;4954729;29;20475;-78
2021/05/21 13:29:13;;;;;;;0.60;0.60;;;;;;;;;;4954292;29;20842;-78
2021/05/21 13:31:39;;;;;;;1.47;0.60;;;;;;;;;;4954334;29;20411;-78
2021/05/21 13:37:09;;;;;;;0.90;0.50;;;;;;;;;;4952754;29;20426;-76
2021/05/21 13:39:35;;;;;;;1.30;0.80;;;;;;;;;;4953732;29;20475;-78
2021/05/21 13:42:01;;;;;;;0.83;0.63;;;;;;;;;;4953168;29;20445;-80
2021/05/21 13:44:28;;;;;;;1.73;0.60;;;;;;;;;;4953497;29;20420;-79
2021/05/21 13:46:54;;;;;;;0.70;0.50;;;;;;;;;;4953328;29;20416;-76
2021/05/21 13:52:23;;;;;;;1.37;0.67;;;;;;;;;;4953630;29;20777;-76
2021/05/21 13:54:50;;;;;;;1.20;0.80;;;;;;;;;;4953299;29;20903;-77
2021/05/21 13:57:16;;;;;;;0.70;0.50;;;;;;;;;;4953105;29;20477;-77
2021/05/21 13:59:45;;;;;;;2.00;0.90;;;;;;;;;;4953104;29;20522;-78
2021/05/21 14:02:11;;;;;;;1.00;0.90;;;;;;;;;;4952404;29;20423;-77
2021/05/21 14:04:38;;;;;;;0.90;0.70;;;;;;;;;;4952226;29;20475;-77
2021/05/21 14:07:04;;;;;;;1.23;0.70;;;;;;;;;;4952798;29;20450;-78
2021/05/21 14:09:30;;;;;;;0.83;0.60;;;;;;;;;;4952546;29;20416;-78
2021/05/21 14:11:56;;;;;;;1.13;0.73;;;;;;;;;;4935538;29;20583;-78
2021/05/21 14:14:22;;;;;;;1.00;0.70;;;;;;;;;;4953141;29;21265;-76
2021/05/21 14:16:48;;;;;;;1.10;0.53;;;;;;;;;;4952904;29;20423;-76
2021/05/21 14:22:21;;;;;;;0.53;0.53;;;;;;;;;;4952509;29;20430;-75
2021/05/21 14:24:48;;;;;;;0.70;0.70;;;;;;;;;;4953284;29;20434;-79
2021/05/21 14:27:16;;;;;;;1.80;0.67;;;;;;;;;;4953129;29;20515;-76
2021/05/21 14:29:42;;;;;;;1.13;0.70;;;;;;;;;;4952810;29;20419;-74
2021/05/21 14:32:08;;;;;;;1.07;0.67;;;;;;;;;;4935592;29;20436;-75
2021/05/21 14:37:37;;;;;;;1.57;0.50;;;;;;;;;;4952375;29;20466;-79
2021/05/21 14:40:07;;;;;;;0.47;0.40;;;;;;;;;;4952779;29;20463;-80
2021/05/21 14:42:33;;;;;;;0.70;0.60;;;;;;;;;;4952758;29;20427;-77
2021/05/21 14:44:59;;;;;;;0.83;0.60;;;;;;;;;;4952158;28;20435;-78
2021/05/21 14:47:28;;;;;;;0.60;0.40;;;;;;;;;;4952208;29;20420;-78
2021/05/21 14:52:57;;;;;;;0.50;0.50;;;;;;;;;;4952758;29;20426;-79
2021/05/21 14:55:34;;;;;;;0.63;0.60;;;;;;;;;;4952402;29;20419;-77
2021/05/21 14:58:00;;;;;;;1.30;0.77;;;;;;;;;;4952011;29;20499;-76
2021/05/21 15:00:26;;;;;;;0.60;0.50;;;;;;;;;;4951357;29;20903;-78
2021/05/21 15:02:56;;;;;;;1.00;0.50;;;;;;;;;;4950085;29;20518;-78
2021/05/21 15:05:23;;;;;;;1.27;0.60;;;;;;;;;;4951670;29;20483;-82
2021/05/21 15:07:49;;;;;;;1.13;0.40;;;;;;;;;;4933876;29;20443;-76
2021/05/21 15:10:17;;;;;;;0.60;0.47;;;;;;;;;;4951680;29;20439;-76
2021/05/21 15:12:44;;;;;;;0.50;0.50;;;;;;;;;;4950217;29;20411;-71
2021/05/21 15:25:50;;;;;;;0.93;0.63;;;;;;;;;;4949920;29;20410;-71
2021/05/21 15:28:16;;;;;;;0.70;0.70;;;;;;;;;;4950848;29;20507;-71
2021/05/21 15:30:47;;;;;;;1.20;0.53;;;;;;;;;;4934248;29;20467;-71
2021/05/21 15:33:14;;;;;;;0.83;0.50;;;;;;;;;;4934455;29;20435;-71
2021/05/21 15:35:40;;;;;;;1.07;0.50;;;;;;;;;;4934244;29;20431;-71
2021/05/21 15:38:06;;;;;;;0.50;0.40;;;;;;;;;;4951486;29;20578;-70
2021/05/21 15:40:33;;;;;;;1.37;0.70;;;;;;;;;;4950377;29;20427;-72
2021/05/21 15:45:50;;;;;;;1.40;0.60;;;;;;;;;;4949738;29;20930;-70
2021/05/21 15:48:16;;;;;;;3.60;0.93;;;;;;;;;;4949564;29;20418;-70
2021/05/21 16:01:22;;;;;;;0.60;0.57;;;;;;;;;;4953378;29;20510;-70
2021/05/21 16:03:49;;;;;;;4.50;0.80;;;;;;;;;;4953099;29;20423;-69
2021/05/21 16:06:15;;;;;;;1.63;0.60;;;;;;;;;;4953269;28;20501;-70
2021/05/21 16:08:41;;;;;;;1.23;0.77;;;;;;;;;;4953820;29;20423;-70
2021/05/21 16:11:08;;;;;;;2.23;0.87;;;;;;;;;;4953268;29;21024;-69
2021/05/21 16:13:37;;;;;;;0.67;0.53;;;;;;;;;;4953094;29;20913;-68
2021/05/21 16:16:04;;;;;;;0.50;0.40;;;;;;;;;;4953371;29;20514;-70
2021/05/21 16:18:30;;;;;;;0.73;0.60;;;;;;;;;;4953545;29;20469;-73
2021/05/21 16:24:01;;;;;;;0.63;0.63;;;;;;;;;;4953807;29;20769;-69
2021/05/21 16:26:28;;;;;;;1.07;1.00;;;;;;;;;;4953215;29;20407;-71
2021/05/21 16:28:54;;;;;;;0.60;0.50;;;;;;;;;;4953125;29;20843;-71
2021/05/21 16:31:20;;;;;;;1.17;0.67;;;;;;;;;;4953165;29;20494;-70
2021/05/21 16:33:46;;;;;;;0.97;0.67;;;;;;;;;;4952755;29;20756;-70
2021/05/21 16:36:12;;;;;;;0.70;0.53;;;;;;;;;;4952622;29;20404;-70
2021/05/21 16:38:38;;;;;;;4.43;3.10;;;;;;;;;;4952582;29;20459;-70
2021/05/21 16:41:07;;;;;;;1.03;1.00;;;;;;;;;;4952646;29;20494;-72
2021/05/21 16:43:33;;;;;;;0.60;0.50;;;;;;;;;;4949905;29;20418;-71
2021/05/21 16:45:59;;;;;;;0.80;0.80;;;;;;;;;;4946720;29;20502;-70
2021/05/21 16:48:26;;;;;;;0.80;0.50;;;;;;;;;;4951189;29;20840;-71
2021/05/21 16:53:56;;;;;;;2.30;0.60;;;;;;;;;;4952427;29;20859;-72